Time;durP1;ratioP1;P1;durP2;ratioP2;P2;SDS_P1;SDS_P2;PMS_P1;PMS_P2;Temp;Humidity;BMP_temperature;BMP_pressure;BME280_temperature;BME280_humidity;BME280_pressure;Samples;Min_cycle;Max_cycle;Signal;HPM_P1;HPM_P2
2020/12/29 00:01:02;;;;;;;;;;;22.20;42.60;;;;;;1511841;77;1151;-56
2020/12/29 00:03:04;;;;;;;;;;;22.20;42.40;;;;;;1521524;78;684;-58
2020/12/29 00:05:07;;;;;;;;;;;22.20;42.40;;;;;;1509674;78;667;-57
2020/12/29 00:07:09;;;;;;;;;;;22.30;42.50;;;;;;1525028;78;722;-59
2020/12/29 00:09:11;;;;;;;;;;;22.30;42.60;;;;;;1507530;78;731;-58
2020/12/29 00:11:14;;;;;;;;;;;22.30;42.40;;;;;;1517705;78;1149;-57
2020/12/29 00:13:16;;;;;;;;;;;22.30;42.40;;;;;;1522367;78;760;-56
2020/12/29 00:15:19;;;;;;;;;;;22.40;42.20;;;;;;1534928;76;1956;-56
2020/12/29 00:17:21;;;;;;;;;;;22.40;42.10;;;;;;1493200;78;828;-56
2020/12/29 00:19:24;;;;;;;;;;;22.40;42.00;;;;;;1476783;80;721;-58
2020/12/29 00:21:26;;;;;;;;;;;22.50;42.00;;;;;;1500238;78;1214;-56
2020/12/29 00:23:28;;;;;;;;;;;22.50;41.90;;;;;;1499412;78;860;-58
2020/12/29 00:25:31;;;;;;;;;;;22.50;41.80;;;;;;1545994;76;694;-55
2020/12/29 00:27:33;;;;;;;;;;;22.50;41.80;;;;;;1552978;76;707;-56
2020/12/29 00:29:35;;;;;;;;;;;22.50;41.80;;;;;;1510281;78;704;-58
2020/12/29 00:31:37;;;;;;;;;;;22.60;41.70;;;;;;1511726;78;1159;-55
2020/12/29 00:33:39;;;;;;;;;;;22.60;41.70;;;;;;1508624;78;1932;-55
2020/12/29 00:35:41;;;;;;;;;;;22.60;41.60;;;;;;1510402;78;686;-57
2020/12/29 00:37:42;;;;;;;;;;;22.60;41.50;;;;;;1513845;78;916;-55
2020/12/29 00:39:44;;;;;;;;;;;22.70;41.50;;;;;;1488828;79;748;-55
2020/12/29 00:41:46;;;;;;;;;;;22.70;41.30;;;;;;1514363;78;1190;-56
2020/12/29 00:43:48;;;;;;;;;;;22.70;41.30;;;;;;1508640;78;734;-56
2020/12/29 00:45:50;;;;;;;;;;;22.70;41.10;;;;;;1511933;78;737;-55
2020/12/29 00:47:52;;;;;;;;;;;22.80;41.10;;;;;;1505406;78;814;-57
2020/12/29 00:49:54;;;;;;;;;;;22.80;41.00;;;;;;1506718;78;690;-55
2020/12/29 00:51:56;;;;;;;;;;;22.80;40.90;;;;;;1512463;77;1165;-57
2020/12/29 00:53:57;;;;;;;;;;;22.80;40.80;;;;;;1510838;78;1913;-56
2020/12/29 00:56:01;;;;;;;;;;;22.80;40.80;;;;;;1504990;78;728;-56
2020/12/29 00:58:03;;;;;;;;;;;22.80;40.70;;;;;;1490856;79;902;-56
2020/12/29 01:00:04;;;;;;;;;;;22.80;40.90;;;;;;1545708;76;725;-56
2020/12/29 01:02:07;;;;;;;;;;;22.80;40.90;;;;;;1508919;78;1148;-56
2020/12/29 01:04:09;;;;;;;;;;;22.80;40.90;;;;;;1500720;78;815;-58
2020/12/29 01:06:12;;;;;;;;;;;22.80;40.90;;;;;;1512545;78;794;-58
2020/12/29 01:08:13;;;;;;;;;;;22.80;40.70;;;;;;1512361;78;791;-56
2020/12/29 01:10:15;;;;;;;;;;;22.80;40.70;;;;;;1485512;79;719;-57
2020/12/29 01:12:17;;;;;;;;;;;22.80;40.70;;;;;;1487716;78;1113;-56
2020/12/29 01:14:20;;;;;;;;;;;22.80;40.60;;;;;;1490045;79;1934;-56
2020/12/29 01:16:22;;;;;;;;;;;22.80;40.60;;;;;;1499286;78;1107;-56
2020/12/29 01:18:24;;;;;;;;;;;22.90;40.70;;;;;;1533465;77;705;-56
2020/12/29 01:20:25;;;;;;;;;;;22.90;40.70;;;;;;1529552;77;694;-57
2020/12/29 01:22:27;;;;;;;;;;;22.90;40.60;;;;;;1528706;77;1151;-58
2020/12/29 01:24:29;;;;;;;;;;;22.90;40.60;;;;;;1531094;77;750;-58
2020/12/29 01:26:31;;;;;;;;;;;22.90;40.60;;;;;;1534376;77;685;-57
2020/12/29 01:28:33;;;;;;;;;;;22.90;40.60;;;;;;1530950;77;746;-56
2020/12/29 01:30:35;;;;;;;;;;;22.90;40.60;;;;;;1530453;77;702;-56
2020/12/29 01:32:37;;;;;;;;;;;22.90;40.60;;;;;;1535243;77;671;-58
2020/12/29 01:34:39;;;;;;;;;;;22.90;40.60;;;;;;1512331;77;1944;-56
2020/12/29 01:36:41;;;;;;;;;;;22.90;40.50;;;;;;1533633;76;693;-56
2020/12/29 01:38:43;;;;;;;;;;;22.90;40.50;;;;;;1528629;77;706;-56
2020/12/29 01:40:46;;;;;;;;;;;22.90;40.50;;;;;;1529873;76;1212;-56
2020/12/29 01:42:48;;;;;;;;;;;22.90;40.50;;;;;;1510736;77;733;-56
2020/12/29 01:44:50;;;;;;;;;;;22.90;40.50;;;;;;1526809;77;694;-56
2020/12/29 01:46:52;;;;;;;;;;;22.90;40.40;;;;;;1509811;77;723;-56
2020/12/29 01:48:55;;;;;;;;;;;22.90;40.40;;;;;;1503564;78;741;-57
2020/12/29 01:50:57;;;;;;;;;;;22.90;40.40;;;;;;1531073;77;1145;-58
2020/12/29 01:53:00;;;;;;;;;;;22.90;40.40;;;;;;1532476;77;674;-56
2020/12/29 01:55:01;;;;;;;;;;;22.90;40.40;;;;;;1530226;77;1940;-56
2020/12/29 01:57:03;;;;;;;;;;;22.90;40.40;;;;;;1529998;77;677;-56
2020/12/29 01:59:09;;;;;;;;;;;22.90;40.40;;;;;;1528878;77;561;-56
2020/12/29 02:01:10;;;;;;;;;;;22.90;40.40;;;;;;1504986;77;1579;-56
2020/12/29 02:03:14;;;;;;;;;;;22.90;40.50;;;;;;1507647;77;782;-55
2020/12/29 02:05:16;;;;;;;;;;;22.90;40.50;;;;;;1510342;77;704;-55
2020/12/29 02:07:17;;;;;;;;;;;22.90;40.30;;;;;;1505960;78;678;-56
2020/12/29 02:09:19;;;;;;;;;;;22.90;40.30;;;;;;1560551;76;754;-56
2020/12/29 02:11:21;;;;;;;;;;;22.90;40.30;;;;;;1554215;75;1272;-57
2020/12/29 02:13:23;;;;;;;;;;;22.90;40.30;;;;;;1531846;77;749;-56
2020/12/29 02:15:25;;;;;;;;;;;22.80;40.20;;;;;;1526089;77;1959;-56
2020/12/29 02:17:27;;;;;;;;;;;22.90;40.20;;;;;;1514882;77;1104;-56
2020/12/29 02:19:31;;;;;;;;;;;22.90;40.20;;;;;;1511437;78;684;-56
2020/12/29 02:21:35;;;;;;;;;;;23.10;40.30;;;;;;1487488;78;1173;-57
2020/12/29 02:23:37;;;;;;;;;;;22.90;40.10;;;;;;1505933;78;1071;-57
2020/12/29 02:25:39;;;;;;;;;;;22.90;40.10;;;;;;1507311;78;679;-56
2020/12/29 02:27:45;;;;;;;;;;;22.90;40.20;;;;;;1513108;78;680;-55
2020/12/29 02:29:47;;;;;;;;;;;22.90;40.30;;;;;;1481796;78;1701;-56
2020/12/29 02:31:49;;;;;;;;;;;22.90;40.50;;;;;;1490930;79;1168;-57
2020/12/29 02:33:51;;;;;;;;;;;22.90;40.50;;;;;;1514654;77;845;-56
2020/12/29 02:35:53;;;;;;;;;;;22.90;40.50;;;;;;1506974;78;1946;-56
2020/12/29 02:37:54;;;;;;;;;;;22.90;40.50;;;;;;1514348;78;795;-56
2020/12/29 02:39:56;;;;;;;;;;;22.90;40.50;;;;;;1483936;78;663;-57
2020/12/29 02:41:58;;;;;;;;;;;23.00;40.60;;;;;;1490944;80;1200;-57
2020/12/29 02:44:00;;;;;;;;;;;22.90;40.60;;;;;;1490975;80;1316;-56
2020/12/29 02:46:02;;;;;;;;;;;23.00;40.60;;;;;;1476067;79;745;-56
2020/12/29 02:48:04;;;;;;;;;;;23.00;40.60;;;;;;1512752;78;704;-56
2020/12/29 02:50:06;;;;;;;;;;;23.00;40.60;;;;;;1508530;77;762;-56
2020/12/29 02:52:08;;;;;;;;;;;23.00;40.70;;;;;;1499925;78;1164;-57
2020/12/29 02:54:11;;;;;;;;;;;23.00;40.60;;;;;;1547885;76;807;-56
2020/12/29 02:56:14;;;;;;;;;;;23.00;40.50;;;;;;1549774;76;1915;-55
2020/12/29 02:58:16;;;;;;;;;;;23.10;40.60;;;;;;1527144;76;1949;-56
2020/12/29 03:00:18;;;;;;;;;;;23.00;40.50;;;;;;1547542;76;676;-56
2020/12/29 03:02:20;;;;;;;;;;;23.10;40.70;;;;;;1535133;75;1098;-57
2020/12/29 03:04:22;;;;;;;;;;;23.10;40.60;;;;;;1522092;76;693;-56
2020/12/29 03:06:24;;;;;;;;;;;23.10;40.70;;;;;;1499785;78;775;-56
2020/12/29 03:08:26;;;;;;;;;;;23.10;40.70;;;;;;1497134;78;660;-56
2020/12/29 03:10:28;;;;;;;;;;;23.10;40.70;;;;;;1483895;80;714;-57
2020/12/29 03:12:29;;;;;;;;;;;23.10;40.70;;;;;;1510253;78;1109;-58
2020/12/29 03:14:31;;;;;;;;;;;23.10;40.60;;;;;;1492425;78;708;-56
2020/12/29 03:16:33;;;;;;;;;;;23.10;40.60;;;;;;1516893;77;1957;-56
2020/12/29 03:18:35;;;;;;;;;;;23.10;40.50;;;;;;1527450;77;684;-56
2020/12/29 03:20:37;;;;;;;;;;;23.10;40.50;;;;;;1537792;77;1187;-56
2020/12/29 03:22:39;;;;;;;;;;;23.10;40.60;;;;;;1490648;78;724;-56
2020/12/29 03:24:41;;;;;;;;;;;23.10;40.50;;;;;;1529664;77;702;-56
2020/12/29 03:26:42;;;;;;;;;;;23.20;40.50;;;;;;1551338;76;730;-55
2020/12/29 03:28:44;;;;;;;;;;;23.20;40.60;;;;;;1523669;77;713;-58
2020/12/29 03:30:46;;;;;;;;;;;23.10;40.70;;;;;;1505109;79;1144;-58
2020/12/29 03:32:48;;;;;;;;;;;23.20;40.70;;;;;;1564877;76;715;-58
2020/12/29 03:34:50;;;;;;;;;;;23.10;40.70;;;;;;1555976;76;1955;-57
2020/12/29 03:36:52;;;;;;;;;;;23.10;40.90;;;;;;1557196;76;708;-58
2020/12/29 03:38:54;;;;;;;;;;;23.10;40.90;;;;;;1564923;76;630;-56
2020/12/29 03:40:56;;;;;;;;;;;23.10;41.00;;;;;;1522435;77;1120;-57
2020/12/29 03:42:58;;;;;;;;;;;23.10;41.20;;;;;;1534719;77;655;-55
2020/12/29 03:44:59;;;;;;;;;;;23.00;41.20;;;;;;1526423;77;686;-57
2020/12/29 03:47:02;;;;;;;;;;;23.10;41.40;;;;;;1527418;77;665;-55
2020/12/29 03:49:04;;;;;;;;;;;23.10;41.50;;;;;;1536435;76;693;-56
2020/12/29 03:51:05;;;;;;;;;;;23.00;41.50;;;;;;1528625;77;1226;-56
2020/12/29 03:53:07;;;;;;;;;;;23.00;41.60;;;;;;1534963;77;705;-56
2020/12/29 03:55:09;;;;;;;;;;;23.00;41.60;;;;;;1557058;76;1935;-56
2020/12/29 03:57:11;;;;;;;;;;;23.00;41.60;;;;;;1532089;77;778;-56
2020/12/29 03:59:13;;;;;;;;;;;23.00;41.60;;;;;;1534730;77;670;-56
2020/12/29 04:01:15;;;;;;;;;;;23.00;41.80;;;;;;1535492;77;1179;-57
2020/12/29 04:03:17;;;;;;;;;;;23.00;41.80;;;;;;1529617;77;795;-56
2020/12/29 04:05:19;;;;;;;;;;;22.90;41.80;;;;;;1534749;77;803;-56
2020/12/29 04:07:21;;;;;;;;;;;23.00;41.90;;;;;;1504989;78;746;-56
2020/12/29 04:09:24;;;;;;;;;;;23.00;42.00;;;;;;1527126;77;687;-57
2020/12/29 04:11:26;;;;;;;;;;;23.00;41.90;;;;;;1522810;77;1796;-56
2020/12/29 04:13:28;;;;;;;;;;;22.90;42.00;;;;;;1534379;77;755;-56
2020/12/29 04:15:30;;;;;;;;;;;22.90;42.10;;;;;;1534086;77;1935;-56
2020/12/29 04:17:35;;;;;;;;;;;22.90;42.30;;;;;;1532045;77;1098;-58
2020/12/29 04:19:36;;;;;;;;;;;22.90;42.30;;;;;;1516176;78;675;-55
2020/12/29 04:21:38;;;;;;;;;;;22.90;42.30;;;;;;1519144;78;1172;-57
2020/12/29 04:23:40;;;;;;;;;;;22.90;42.20;;;;;;1511827;78;674;-57
2020/12/29 04:25:42;;;;;;;;;;;23.00;42.20;;;;;;1518203;78;719;-56
2020/12/29 04:27:44;;;;;;;;;;;22.90;42.30;;;;;;1512125;78;701;-58
2020/12/29 04:29:46;;;;;;;;;;;23.00;42.30;;;;;;1523107;78;759;-57
2020/12/29 04:31:48;;;;;;;;;;;23.00;42.30;;;;;;1517484;78;1137;-56
2020/12/29 04:33:50;;;;;;;;;;;22.90;42.30;;;;;;1524104;78;733;-58
2020/12/29 04:35:51;;;;;;;;;;;22.90;42.20;;;;;;1513029;78;1927;-57
2020/12/29 04:37:53;;;;;;;;;;;22.90;42.20;;;;;;1523673;78;798;-57
2020/12/29 04:39:55;;;;;;;;;;;22.90;42.20;;;;;;1525312;78;735;-57
2020/12/29 04:41:59;;;;;;;;;;;22.90;42.30;;;;;;1518913;78;1193;-56
2020/12/29 04:44:01;;;;;;;;;;;22.90;42.20;;;;;;1515660;78;774;-56
2020/12/29 04:46:03;;;;;;;;;;;23.00;42.20;;;;;;1519284;77;714;-58
2020/12/29 04:48:05;;;;;;;;;;;22.90;42.20;;;;;;1516620;77;799;-58
2020/12/29 04:50:07;;;;;;;;;;;23.00;42.10;;;;;;1516800;78;782;-56
2020/12/29 04:52:09;;;;;;;;;;;23.00;42.10;;;;;;1524653;78;1163;-56
2020/12/29 04:54:11;;;;;;;;;;;23.00;42.20;;;;;;1503652;78;803;-58
2020/12/29 04:56:13;;;;;;;;;;;22.90;42.20;;;;;;1507964;78;1934;-56
2020/12/29 04:58:15;;;;;;;;;;;22.90;42.20;;;;;;1513666;78;781;-58
2020/12/29 05:00:17;;;;;;;;;;;22.90;42.20;;;;;;1516975;78;774;-56
2020/12/29 05:02:19;;;;;;;;;;;23.00;42.20;;;;;;1522780;78;1128;-57
2020/12/29 05:04:21;;;;;;;;;;;23.00;42.20;;;;;;1517712;78;702;-57
2020/12/29 05:06:23;;;;;;;;;;;23.00;42.20;;;;;;1507726;78;708;-56
2020/12/29 05:08:25;;;;;;;;;;;23.00;42.20;;;;;;1523595;78;755;-57
2020/12/29 05:10:27;;;;;;;;;;;23.00;42.20;;;;;;1516083;78;709;-56
2020/12/29 05:12:30;;;;;;;;;;;23.00;42.10;;;;;;1511733;78;1119;-57
2020/12/29 05:14:32;;;;;;;;;;;23.00;42.10;;;;;;1508328;78;728;-59
2020/12/29 05:16:37;;;;;;;;;;;23.10;42.20;;;;;;1517499;78;1937;-57
2020/12/29 05:18:39;;;;;;;;;;;23.00;42.00;;;;;;1504387;78;1013;-56
2020/12/29 05:20:41;;;;;;;;;;;23.00;42.00;;;;;;1501573;78;1215;-58
2020/12/29 05:22:43;;;;;;;;;;;23.10;42.10;;;;;;1498005;78;717;-57
2020/12/29 05:24:47;;;;;;;;;;;23.10;42.10;;;;;;1486177;78;719;-57
2020/12/29 05:26:51;;;;;;;;;;;23.10;42.10;;;;;;1512882;77;785;-55
2020/12/29 05:28:53;;;;;;;;;;;23.10;42.10;;;;;;1514765;77;607;-57
2020/12/29 05:30:55;;;;;;;;;;;23.10;42.00;;;;;;1516149;77;1164;-58
2020/12/29 05:32:57;;;;;;;;;;;23.00;41.90;;;;;;1480664;78;779;-58
2020/12/29 05:34:59;;;;;;;;;;;23.10;42.00;;;;;;1476305;78;754;-57
2020/12/29 05:37:00;;;;;;;;;;;23.10;42.00;;;;;;1479491;78;1948;-56
2020/12/29 05:39:09;;;;;;;;;;;23.10;42.20;;;;;;1465792;80;777;-56
2020/12/29 05:41:12;;;;;;;;;;;23.10;42.20;;;;;;1495811;79;1199;-57
2020/12/29 05:43:14;;;;;;;;;;;23.20;42.20;;;;;;1478564;79;779;-56
2020/12/29 05:45:17;;;;;;;;;;;23.10;42.10;;;;;;1506310;78;755;-56
2020/12/29 05:47:22;;;;;;;;;;;23.20;42.00;;;;;;1506812;77;814;-57
2020/12/29 05:49:24;;;;;;;;;;;23.20;42.00;;;;;;1504203;77;788;-56
2020/12/29 05:51:26;;;;;;;;;;;23.20;41.90;;;;;;1545973;75;1162;-56
2020/12/29 05:53:28;;;;;;;;;;;23.30;41.90;;;;;;1512453;78;723;-56
2020/12/29 05:55:30;;;;;;;;;;;23.20;41.80;;;;;;1502594;78;826;-56
2020/12/29 05:57:32;;;;;;;;;;;23.20;41.80;;;;;;1473379;79;1941;-57
2020/12/29 05:59:34;;;;;;;;;;;23.20;41.60;;;;;;1514359;78;780;-58
2020/12/29 06:01:47;;;;;;;;;;;23.30;41.80;;;;;;1496379;78;1146;-58
2020/12/29 06:03:49;;;;;;;;;;;23.40;41.80;;;;;;1545878;76;1031;-56
2020/12/29 06:05:51;;;;;;;;;;;23.30;41.80;;;;;;1536837;76;799;-57
2020/12/29 06:07:53;;;;;;;;;;;23.20;41.80;;;;;;1515465;78;674;-57
2020/12/29 06:09:55;;;;;;;;;;;23.30;41.80;;;;;;1516032;78;917;-56
2020/12/29 06:11:57;;;;;;;;;;;23.30;41.70;;;;;;1471585;80;1120;-57
2020/12/29 06:13:59;;;;;;;;;;;23.30;41.60;;;;;;1477772;80;679;-56
2020/12/29 06:16:01;;;;;;;;;;;23.30;41.70;;;;;;1488051;78;1934;-55
2020/12/29 06:18:06;;;;;;;;;;;23.30;41.60;;;;;;1531188;76;782;-56
2020/12/29 06:20:08;;;;;;;;;;;23.40;41.60;;;;;;1506992;78;1062;-57
2020/12/29 06:22:10;;;;;;;;;;;23.40;41.50;;;;;;1503524;78;1172;-58
2020/12/29 06:24:12;;;;;;;;;;;23.40;41.40;;;;;;1507990;78;755;-58
2020/12/29 06:26:15;;;;;;;;;;;23.40;41.30;;;;;;1510991;78;699;-55
2020/12/29 06:28:17;;;;;;;;;;;23.40;41.30;;;;;;1532337;76;1710;-57
2020/12/29 06:30:20;;;;;;;;;;;23.30;41.30;;;;;;1501912;78;696;-56
2020/12/29 06:32:22;;;;;;;;;;;23.40;41.50;;;;;;1547598;76;1084;-56
2020/12/29 06:34:23;;;;;;;;;;;23.40;41.50;;;;;;1502927;78;603;-57
2020/12/29 06:36:26;;;;;;;;;;;23.40;41.50;;;;;;1511752;78;1940;-57
2020/12/29 06:38:29;;;;;;;;;;;23.50;41.60;;;;;;1509587;78;739;-59
2020/12/29 06:40:31;;;;;;;;;;;23.50;41.60;;;;;;1506842;78;676;-57
2020/12/29 06:42:33;;;;;;;;;;;23.40;41.50;;;;;;1508708;78;1070;-57
2020/12/29 06:44:35;;;;;;;;;;;23.40;41.40;;;;;;1504039;78;760;-56
2020/12/29 06:46:37;;;;;;;;;;;23.40;41.40;;;;;;1500002;77;768;-57
2020/12/29 06:48:39;;;;;;;;;;;23.40;41.30;;;;;;1502360;77;793;-56
2020/12/29 06:50:41;;;;;;;;;;;23.40;41.40;;;;;;1501794;78;1172;-57
2020/12/29 06:52:43;;;;;;;;;;;23.40;41.30;;;;;;1509935;78;714;-57
2020/12/29 06:54:55;;;;;;;;;;;23.50;41.50;;;;;;1513359;78;740;-57
2020/12/29 06:56:59;;;;;;;;;;;23.40;41.50;;;;;;1515684;78;1925;-57
2020/12/29 06:59:01;;;;;;;;;;;23.40;41.60;;;;;;1506675;78;694;-59
2020/12/29 07:01:21;;;;;;;;;;;23.40;41.60;;;;;;1489181;79;1129;-57
2020/12/29 07:03:24;;;;;;;;;;;23.40;41.50;;;;;;1543555;76;729;-57
2020/12/29 07:05:27;;;;;;;;;;;23.40;41.60;;;;;;1495383;78;1700;-56
2020/12/29 07:07:30;;;;;;;;;;;23.40;41.50;;;;;;1488580;78;689;-56
2020/12/29 07:09:32;;;;;;;;;;;23.50;41.70;;;;;;1496358;78;755;-56
2020/12/29 07:11:34;;;;;;;;;;;23.40;41.60;;;;;;1503858;78;1151;-55
2020/12/29 07:13:36;;;;;;;;;;;23.40;41.60;;;;;;1510167;78;744;-56
2020/12/29 07:15:45;;;;;;;;;;;23.50;41.80;;;;;;1499035;78;765;-57
2020/12/29 07:17:54;;;;;;;;;;;23.40;41.60;;;;;;1499742;78;1901;-58
2020/12/29 07:19:56;;;;;;;;;;;23.50;41.80;;;;;;1506631;78;1708;-59
2020/12/29 07:21:59;;;;;;;;;;;23.40;41.50;;;;;;1519650;78;1183;-57
2020/12/29 07:24:02;;;;;;;;;;;23.40;41.50;;;;;;1524606;78;774;-59
2020/12/29 07:26:06;;;;;;;;;;;23.50;41.50;;;;;;1526034;77;744;-57
2020/12/29 07:28:07;;;;;;;;;;;23.50;41.60;;;;;;1495270;78;700;-60
2020/12/29 07:30:09;;;;;;;;;;;23.40;41.60;;;;;;1531919;76;730;-59
2020/12/29 07:32:11;;;;;;;;;;;23.40;41.50;;;;;;1513098;78;1140;-57
2020/12/29 07:34:14;;;;;;;;;;;23.40;41.50;;;;;;1509087;77;793;-57
2020/12/29 07:36:18;;;;;;;;;;;23.40;41.50;;;;;;1512030;78;1940;-59
2020/12/29 07:38:20;;;;;;;;;;;23.40;41.60;;;;;;1508637;78;1072;-57
2020/12/29 07:40:23;;;;;;;;;;;23.40;41.60;;;;;;1522873;78;689;-57
2020/12/29 07:42:25;;;;;;;;;;;23.40;41.60;;;;;;1511280;78;1132;-57
2020/12/29 07:44:27;;;;;;;;;;;23.50;41.80;;;;;;1549594;75;661;-59
2020/12/29 07:46:29;;;;;;;;;;;23.50;41.60;;;;;;1518977;78;768;-58
2020/12/29 07:48:30;;;;;;;;;;;23.40;41.60;;;;;;1520711;77;718;-57
2020/12/29 07:50:33;;;;;;;;;;;23.40;41.50;;;;;;1512907;78;675;-58
2020/12/29 07:52:34;;;;;;;;;;;23.40;41.60;;;;;;1522039;78;1208;-57
2020/12/29 07:54:36;;;;;;;;;;;23.50;41.60;;;;;;1557744;76;1061;-57
2020/12/29 07:56:39;;;;;;;;;;;23.40;41.50;;;;;;1523273;78;1929;-58
2020/12/29 07:58:41;;;;;;;;;;;23.50;41.60;;;;;;1523739;78;803;-57
2020/12/29 08:00:43;;;;;;;;;;;23.50;41.50;;;;;;1521500;77;1151;-56
2020/12/29 08:02:51;;;;;;;;;;;23.50;41.60;;;;;;1523420;78;714;-57
2020/12/29 08:04:53;;;;;;;;;;;23.50;41.70;;;;;;1506125;78;688;-57
2020/12/29 08:06:55;;;;;;;;;;;23.50;41.60;;;;;;1486675;79;1261;-56
2020/12/29 08:09:00;;;;;;;;;;;23.50;41.50;;;;;;1512080;78;670;-57
2020/12/29 08:11:02;;;;;;;;;;;23.50;41.50;;;;;;1513114;78;1140;-57
2020/12/29 08:13:05;;;;;;;;;;;23.50;41.50;;;;;;1489209;79;765;-57
2020/12/29 08:15:07;;;;;;;;;;;23.50;41.40;;;;;;1548620;76;1752;-58
2020/12/29 08:17:09;;;;;;;;;;;23.60;41.50;;;;;;1524696;78;1938;-58
2020/12/29 08:19:11;;;;;;;;;;;23.50;41.50;;;;;;1525513;78;689;-57
2020/12/29 08:21:14;;;;;;;;;;;23.50;41.50;;;;;;1529759;77;1167;-57
2020/12/29 08:23:18;;;;;;;;;;;23.60;41.40;;;;;;1502300;78;727;-57
2020/12/29 08:25:20;;;;;;;;;;;23.60;41.40;;;;;;1532095;77;1611;-57
2020/12/29 08:27:22;;;;;;;;;;;23.50;41.50;;;;;;1527735;77;649;-57
2020/12/29 08:29:23;;;;;;;;;;;23.50;41.40;;;;;;1528438;77;745;-58
2020/12/29 08:31:26;;;;;;;;;;;23.50;41.40;;;;;;1532438;77;1110;-56
2020/12/29 08:33:29;;;;;;;;;;;23.50;41.50;;;;;;1525714;77;795;-59
2020/12/29 08:35:35;;;;;;;;;;;23.50;41.50;;;;;;1527390;77;722;-58
2020/12/29 08:37:36;;;;;;;;;;;23.50;41.50;;;;;;1501192;79;1942;-59
2020/12/29 08:39:43;;;;;;;;;;;23.50;41.50;;;;;;1523136;77;758;-58
2020/12/29 08:41:46;;;;;;;;;;;23.50;41.50;;;;;;1490005;78;1065;-59
2020/12/29 08:43:48;;;;;;;;;;;23.50;41.20;;;;;;1544446;76;728;-59
2020/12/29 08:45:50;;;;;;;;;;;23.60;40.70;;;;;;1524471;76;813;-59
2020/12/29 08:47:54;;;;;;;;;;;23.60;40.50;;;;;;1514376;77;702;-59
2020/12/29 08:49:55;;;;;;;;;;;23.50;40.00;;;;;;1471577;79;713;-58
2020/12/29 08:51:57;;;;;;;;;;;23.60;39.70;;;;;;1492549;79;1129;-60
2020/12/29 08:54:09;;;;;;;;;;;23.60;39.60;;;;;;1530254;77;769;-58
2020/12/29 08:56:26;;;;;;;;;;;23.60;39.20;;;;;;1531585;77;745;-58
2020/12/29 08:58:29;;;;;;;;;;;23.60;39.20;;;;;;1528097;77;1987;-57
2020/12/29 09:00:31;;;;;;;;;;;23.50;39.40;;;;;;1558518;76;1103;-57
2020/12/29 09:02:33;;;;;;;;;;;23.50;39.70;;;;;;1530952;77;1105;-57
2020/12/29 09:04:39;;;;;;;;;;;23.50;39.80;;;;;;1530829;77;796;-56
2020/12/29 09:06:41;;;;;;;;;;;23.50;39.80;;;;;;1530204;77;726;-57
2020/12/29 09:08:43;;;;;;;;;;;23.50;39.80;;;;;;1512822;77;682;-59
2020/12/29 09:10:44;;;;;;;;;;;23.60;40.00;;;;;;1530886;77;1144;-57
2020/12/29 09:12:46;;;;;;;;;;;23.60;40.00;;;;;;1532203;77;728;-56
2020/12/29 09:14:55;;;;;;;;;;;23.50;40.10;;;;;;1529990;77;707;-56
2020/12/29 09:17:01;;;;;;;;;;;23.50;40.20;;;;;;1506461;79;1949;-57
2020/12/29 09:19:05;;;;;;;;;;;23.50;40.10;;;;;;1532105;77;1027;-59
2020/12/29 09:21:19;;;;;;;;;;;23.60;40.20;;;;;;1497906;79;1732;-59
2020/12/29 09:23:22;;;;;;;;;;;23.60;40.30;;;;;;1523626;74;3076;-60
2020/12/29 09:25:24;;;;;;;;;;;23.50;40.50;;;;;;1532376;77;1221;-59
2020/12/29 09:27:28;;;;;;;;;;;23.50;40.50;;;;;;1550126;76;723;-59
2020/12/29 09:29:31;;;;;;;;;;;23.50;40.60;;;;;;1548013;76;719;-59
2020/12/29 09:31:33;;;;;;;;;;;23.50;40.60;;;;;;1538281;76;1550;-58
2020/12/29 09:33:35;;;;;;;;;;;23.50;40.60;;;;;;1527363;76;707;-57
2020/12/29 09:35:37;;;;;;;;;;;23.60;40.70;;;;;;1532465;76;765;-59
2020/12/29 09:37:41;;;;;;;;;;;23.60;40.70;;;;;;1532630;76;1941;-61
2020/12/29 09:39:43;;;;;;;;;;;23.50;40.70;;;;;;1513489;77;1903;-58
2020/12/29 09:41:45;;;;;;;;;;;23.50;40.70;;;;;;1528377;76;1158;-59
2020/12/29 09:43:48;;;;;;;;;;;23.60;40.80;;;;;;1522056;76;729;-57
2020/12/29 09:45:50;;;;;;;;;;;23.60;40.80;;;;;;1529272;76;1384;-59
2020/12/29 09:47:52;;;;;;;;;;;23.50;41.00;;;;;;1528709;76;760;-60
2020/12/29 09:49:54;;;;;;;;;;;23.60;40.60;;;;;;1522201;76;768;-60
2020/12/29 09:51:56;;;;;;;;;;;23.60;40.50;;;;;;1526463;76;1146;-65
2020/12/29 09:53:58;;;;;;;;;;;23.70;40.20;;;;;;1527662;76;762;-63
2020/12/29 09:56:00;;;;;;;;;;;23.70;39.90;;;;;;1532482;76;778;-64
2020/12/29 09:58:02;;;;;;;;;;;23.70;39.70;;;;;;1526818;76;1957;-64
2020/12/29 10:00:04;;;;;;;;;;;23.70;39.50;;;;;;1527779;76;915;-65
2020/12/29 10:02:06;;;;;;;;;;;23.80;39.30;;;;;;1529330;76;1165;-65
2020/12/29 10:04:08;;;;;;;;;;;23.70;39.10;;;;;;1531874;76;784;-65
2020/12/29 10:06:10;;;;;;;;;;;23.80;38.80;;;;;;1528961;76;893;-64
2020/12/29 10:08:12;;;;;;;;;;;23.80;38.70;;;;;;1526194;76;736;-65
2020/12/29 10:10:14;;;;;;;;;;;23.70;38.60;;;;;;1528633;76;735;-64
2020/12/29 10:12:16;;;;;;;;;;;23.70;38.60;;;;;;1522235;76;1146;-62
2020/12/29 10:14:17;;;;;;;;;;;23.70;38.40;;;;;;1522266;76;767;-64
2020/12/29 10:16:19;;;;;;;;;;;23.70;38.10;;;;;;1526649;76;772;-66
2020/12/29 10:18:21;;;;;;;;;;;23.60;38.40;;;;;;1532545;76;1937;-60
2020/12/29 10:20:23;;;;;;;;;;;23.70;38.40;;;;;;1534329;76;743;-59
2020/12/29 10:22:28;;;;;;;;;;;23.70;38.00;;;;;;1524083;76;1133;-59
2020/12/29 10:24:30;;;;;;;;;;;23.70;37.90;;;;;;1535393;76;806;-59
2020/12/29 10:26:32;;;;;;;;;;;23.70;37.70;;;;;;1530125;75;777;-59
2020/12/29 10:28:33;;;;;;;;;;;23.70;37.80;;;;;;1530362;75;717;-60
2020/12/29 10:30:35;;;;;;;;;;;23.70;37.80;;;;;;1527440;75;745;-59
2020/12/29 10:32:39;;;;;;;;;;;23.60;37.50;;;;;;1525001;75;1131;-60
2020/12/29 10:34:43;;;;;;;;;;;23.60;37.30;;;;;;1538746;75;1406;-61
2020/12/29 10:36:45;;;;;;;;;;;23.60;37.20;;;;;;1543584;75;2115;-60
2020/12/29 10:38:47;;;;;;;;;;;23.50;37.30;;;;;;1528823;75;1924;-61
2020/12/29 10:40:49;;;;;;;;;;;23.60;37.40;;;;;;1535065;75;1129;-60
2020/12/29 10:42:51;;;;;;;;;;;23.50;37.30;;;;;;1535288;75;658;-60
2020/12/29 10:44:52;;;;;;;;;;;23.50;37.20;;;;;;1538665;75;758;-59
2020/12/29 10:46:54;;;;;;;;;;;23.50;37.20;;;;;;1528597;75;810;-60
2020/12/29 10:48:56;;;;;;;;;;;23.50;37.30;;;;;;1535731;75;709;-59
2020/12/29 10:50:58;;;;;;;;;;;23.50;37.30;;;;;;1537237;75;1131;-60
2020/12/29 10:53:00;;;;;;;;;;;23.50;37.40;;;;;;1540978;75;729;-60
2020/12/29 10:55:02;;;;;;;;;;;23.40;37.30;;;;;;1536534;75;778;-59
2020/12/29 10:57:04;;;;;;;;;;;23.40;37.30;;;;;;1561167;74;812;-59
2020/12/29 10:59:07;;;;;;;;;;;23.40;37.30;;;;;;1557303;74;1929;-59
2020/12/29 11:01:09;;;;;;;;;;;23.40;37.30;;;;;;1556407;74;1124;-59
2020/12/29 11:03:11;;;;;;;;;;;23.40;37.30;;;;;;1558219;75;710;-61
2020/12/29 11:05:13;;;;;;;;;;;23.40;37.30;;;;;;1558011;75;711;-59
2020/12/29 11:07:15;;;;;;;;;;;23.40;37.20;;;;;;1541899;75;813;-60
2020/12/29 11:09:17;;;;;;;;;;;23.40;37.30;;;;;;1542549;75;784;-60
2020/12/29 11:11:19;;;;;;;;;;;23.40;37.20;;;;;;1550574;75;1100;-58
2020/12/29 11:13:21;;;;;;;;;;;23.40;37.20;;;;;;1553982;75;869;-59
2020/12/29 11:15:23;;;;;;;;;;;23.50;37.30;;;;;;1563349;75;761;-60
2020/12/29 11:17:25;;;;;;;;;;;23.50;37.20;;;;;;1550583;75;724;-60
2020/12/29 11:19:26;;;;;;;;;;;23.40;37.10;;;;;;1531971;76;1944;-65
2020/12/29 11:21:28;;;;;;;;;;;23.50;37.20;;;;;;1560654;74;1197;-65
2020/12/29 11:23:30;;;;;;;;;;;23.50;37.10;;;;;;1554741;74;774;-65
2020/12/29 11:25:32;;;;;;;;;;;23.50;37.10;;;;;;1562161;75;804;-65
2020/12/29 11:27:34;;;;;;;;;;;23.50;37.10;;;;;;1554512;75;775;-66
2020/12/29 11:29:36;;;;;;;;;;;23.50;37.00;;;;;;1562984;75;795;-67
2020/12/29 11:31:38;;;;;;;;;;;23.50;37.10;;;;;;1559327;74;1213;-66
2020/12/29 11:33:40;;;;;;;;;;;23.50;37.00;;;;;;1578488;74;702;-66
2020/12/29 11:35:43;;;;;;;;;;;23.50;37.10;;;;;;1582744;74;867;-66
2020/12/29 11:37:45;;;;;;;;;;;23.50;37.00;;;;;;1574440;74;1939;-66
2020/12/29 11:39:47;;;;;;;;;;;23.50;36.90;;;;;;1566558;74;698;-66
2020/12/29 11:41:53;;;;;;;;;;;23.50;36.90;;;;;;1577582;74;1170;-66
2020/12/29 11:43:55;;;;;;;;;;;23.50;36.80;;;;;;1574050;74;1585;-65
2020/12/29 11:45:57;;;;;;;;;;;23.50;36.80;;;;;;1568534;74;720;-66
2020/12/29 11:47:59;;;;;;;;;;;23.50;36.80;;;;;;1576736;74;724;-66
2020/12/29 11:50:01;;;;;;;;;;;23.50;36.80;;;;;;1571471;74;707;-66
2020/12/29 11:52:03;;;;;;;;;;;23.50;36.80;;;;;;1572493;74;1159;-66
2020/12/29 11:54:05;;;;;;;;;;;23.50;36.80;;;;;;1571819;74;774;-66
2020/12/29 11:56:08;;;;;;;;;;;23.50;36.70;;;;;;1573685;74;885;-66
2020/12/29 11:58:10;;;;;;;;;;;23.50;36.80;;;;;;1569880;74;1923;-66
2020/12/29 12:00:12;;;;;;;;;;;23.50;36.70;;;;;;1574207;74;816;-66
2020/12/29 12:02:14;;;;;;;;;;;23.50;36.70;;;;;;1574211;74;1075;-67
2020/12/29 12:04:15;;;;;;;;;;;23.50;36.70;;;;;;1574437;74;710;-66
2020/12/29 12:06:17;;;;;;;;;;;23.50;36.70;;;;;;1573745;74;794;-66
2020/12/29 12:08:19;;;;;;;;;;;23.50;36.60;;;;;;1571591;74;776;-66
2020/12/29 12:10:21;;;;;;;;;;;23.50;36.60;;;;;;1580571;74;778;-66